sensor_id;sensor_type;location;lat;lon;timestamp;P1;durP1;ratioP1;P2;durP2;ratioP2
62903;SDS011;49000;50.698;13.322;2023-08-17T00:02:23;10.57;;;9.30;;
62903;SDS011;49000;50.698;13.322;2023-08-17T00:04:49;11.10;;;8.80;;
62903;SDS011;49000;50.698;13.322;2023-08-17T00:07:14;10.17;;;8.80;;
62903;SDS011;49000;50.698;13.322;2023-08-17T00:09:40;9.87;;;8.30;;
62903;SDS011;49000;50.698;13.322;2023-08-17T00:12:05;9.15;;;8.25;;
62903;SDS011;49000;50.698;13.322;2023-08-17T00:14:31;10.27;;;8.90;;
62903;SDS011;49000;50.698;13.322;2023-08-17T00:16:56;10.23;;;7.97;;
62903;SDS011;49000;50.698;13.322;2023-08-17T00:19:22;9.77;;;8.07;;
62903;SDS011;49000;50.698;13.322;2023-08-17T00:21:48;10.00;;;8.90;;
62903;SDS011;49000;50.698;13.322;2023-08-17T00:24:13;9.87;;;8.50;;
62903;SDS011;49000;50.698;13.322;2023-08-17T00:26:39;9.50;;;8.43;;
62903;SDS011;49000;50.698;13.322;2023-08-17T00:29:04;9.50;;;8.53;;
62903;SDS011;49000;50.698;13.322;2023-08-17T00:31:30;8.67;;;7.63;;
62903;SDS011;49000;50.698;13.322;2023-08-17T00:33:55;8.90;;;8.00;;
62903;SDS011;49000;50.698;13.322;2023-08-17T00:36:21;9.83;;;8.13;;
62903;SDS011;49000;50.698;13.322;2023-08-17T00:38:46;12.97;;;8.67;;
62903;SDS011;49000;50.698;13.322;2023-08-17T00:41:12;10.33;;;9.23;;
62903;SDS011;49000;50.698;13.322;2023-08-17T00:43:37;10.90;;;8.97;;
62903;SDS011;49000;50.698;13.322;2023-08-17T00:46:03;10.27;;;9.23;;
62903;SDS011;49000;50.698;13.322;2023-08-17T00:48:29;10.60;;;9.00;;
62903;SDS011;49000;50.698;13.322;2023-08-17T00:50:56;10.77;;;9.47;;
62903;SDS011;49000;50.698;13.322;2023-08-17T00:53:25;9.47;;;8.47;;
62903;SDS011;49000;50.698;13.322;2023-08-17T00:55:53;10.93;;;8.93;;
62903;SDS011;49000;50.698;13.322;2023-08-17T00:58:20;10.47;;;8.33;;
62903;SDS011;49000;50.698;13.322;2023-08-17T01:00:46;10.50;;;9.40;;
62903;SDS011;49000;50.698;13.322;2023-08-17T01:03:12;9.37;;;8.47;;
62903;SDS011;49000;50.698;13.322;2023-08-17T01:05:37;10.60;;;7.90;;
62903;SDS011;49000;50.698;13.322;2023-08-17T01:08:03;10.50;;;9.20;;
62903;SDS011;49000;50.698;13.322;2023-08-17T01:10:41;9.43;;;8.53;;
62903;SDS011;49000;50.698;13.322;2023-08-17T01:14:10;9.20;;;7.97;;
62903;SDS011;49000;50.698;13.322;2023-08-17T01:16:31;9.53;;;8.63;;
62903;SDS011;49000;50.698;13.322;2023-08-17T01:19:08;10.37;;;8.10;;
62903;SDS011;49000;50.698;13.322;2023-08-17T01:21:44;10.67;;;8.23;;
62903;SDS011;49000;50.698;13.322;2023-08-17T01:24:15;9.50;;;8.07;;
62903;SDS011;49000;50.698;13.322;2023-08-17T01:26:40;11.43;;;8.80;;
62903;SDS011;49000;50.698;13.322;2023-08-17T01:29:06;9.10;;;8.17;;
62903;SDS011;49000;50.698;13.322;2023-08-17T01:31:34;9.03;;;7.30;;
62903;SDS011;49000;50.698;13.322;2023-08-17T01:34:09;10.00;;;8.33;;
62903;SDS011;49000;50.698;13.322;2023-08-17T01:36:43;10.97;;;8.70;;
62903;SDS011;49000;50.698;13.322;2023-08-17T01:39:23;9.20;;;7.73;;
62903;SDS011;49000;50.698;13.322;2023-08-17T01:41:52;8.27;;;7.47;;
62903;SDS011;49000;50.698;13.322;2023-08-17T01:44:21;12.60;;;8.90;;
62903;SDS011;49000;50.698;13.322;2023-08-17T01:46:47;10.83;;;7.80;;
62903;SDS011;49000;50.698;13.322;2023-08-17T01:49:13;7.97;;;7.03;;
62903;SDS011;49000;50.698;13.322;2023-08-17T01:51:39;9.40;;;8.20;;
62903;SDS011;49000;50.698;13.322;2023-08-17T01:54:05;10.97;;;7.10;;
62903;SDS011;49000;50.698;13.322;2023-08-17T01:56:30;7.97;;;7.07;;
62903;SDS011;49000;50.698;13.322;2023-08-17T01:58:56;9.10;;;7.47;;
62903;SDS011;49000;50.698;13.322;2023-08-17T02:01:21;11.93;;;8.23;;
62903;SDS011;49000;50.698;13.322;2023-08-17T02:03:47;8.23;;;7.10;;
62903;SDS011;49000;50.698;13.322;2023-08-17T02:06:12;7.57;;;6.87;;
62903;SDS011;49000;50.698;13.322;2023-08-17T02:08:38;8.80;;;7.80;;
62903;SDS011;49000;50.698;13.322;2023-08-17T02:11:04;8.00;;;7.20;;
62903;SDS011;49000;50.698;13.322;2023-08-17T02:13:29;9.40;;;7.77;;
62903;SDS011;49000;50.698;13.322;2023-08-17T02:15:55;11.13;;;7.67;;
62903;SDS011;49000;50.698;13.322;2023-08-17T02:18:20;6.80;;;6.10;;
62903;SDS011;49000;50.698;13.322;2023-08-17T02:20:46;8.57;;;7.77;;
62903;SDS011;49000;50.698;13.322;2023-08-17T02:23:11;8.87;;;7.30;;
62903;SDS011;49000;50.698;13.322;2023-08-17T02:25:38;7.60;;;6.40;;
62903;SDS011;49000;50.698;13.322;2023-08-17T02:28:04;9.10;;;7.37;;
62903;SDS011;49000;50.698;13.322;2023-08-17T02:30:29;10.43;;;8.10;;
62903;SDS011;49000;50.698;13.322;2023-08-17T02:32:55;10.77;;;7.57;;
62903;SDS011;49000;50.698;13.322;2023-08-17T02:35:20;10.07;;;7.97;;
62903;SDS011;49000;50.698;13.322;2023-08-17T02:37:46;8.13;;;7.03;;
62903;SDS011;49000;50.698;13.322;2023-08-17T02:40:11;10.47;;;7.30;;
62903;SDS011;49000;50.698;13.322;2023-08-17T02:42:37;9.53;;;7.20;;
62903;SDS011;49000;50.698;13.322;2023-08-17T02:45:04;7.63;;;6.70;;
62903;SDS011;49000;50.698;13.322;2023-08-17T02:47:33;9.10;;;8.17;;
62903;SDS011;49000;50.698;13.322;2023-08-17T02:49:59;7.87;;;7.17;;
62903;SDS011;49000;50.698;13.322;2023-08-17T02:52:24;8.83;;;8.03;;
62903;SDS011;49000;50.698;13.322;2023-08-17T02:54:50;8.87;;;7.77;;
62903;SDS011;49000;50.698;13.322;2023-08-17T02:57:15;9.03;;;7.87;;
62903;SDS011;49000;50.698;13.322;2023-08-17T02:59:41;9.80;;;8.07;;
62903;SDS011;49000;50.698;13.322;2023-08-17T03:02:06;11.50;;;7.80;;
62903;SDS011;49000;50.698;13.322;2023-08-17T03:04:32;9.17;;;7.70;;
62903;SDS011;49000;50.698;13.322;2023-08-17T03:06:58;9.00;;;7.93;;
62903;SDS011;49000;50.698;13.322;2023-08-17T03:09:23;9.40;;;7.83;;
62903;SDS011;49000;50.698;13.322;2023-08-17T03:11:49;10.87;;;8.20;;
62903;SDS011;49000;50.698;13.322;2023-08-17T03:14:14;8.40;;;7.60;;
62903;SDS011;49000;50.698;13.322;2023-08-17T03:16:40;9.27;;;8.30;;
62903;SDS011;49000;50.698;13.322;2023-08-17T03:19:05;10.23;;;9.23;;
62903;SDS011;49000;50.698;13.322;2023-08-17T03:21:33;9.03;;;8.13;;
62903;SDS011;49000;50.698;13.322;2023-08-17T03:23:59;9.37;;;8.40;;
62903;SDS011;49000;50.698;13.322;2023-08-17T03:26:24;9.93;;;8.10;;
62903;SDS011;49000;50.698;13.322;2023-08-17T03:28:50;9.03;;;8.10;;
62903;SDS011;49000;50.698;13.322;2023-08-17T03:31:15;10.97;;;8.90;;
62903;SDS011;49000;50.698;13.322;2023-08-17T03:33:41;8.90;;;8.07;;
62903;SDS011;49000;50.698;13.322;2023-08-17T03:36:06;8.47;;;7.63;;
62903;SDS011;49000;50.698;13.322;2023-08-17T03:38:32;9.97;;;7.90;;
62903;SDS011;49000;50.698;13.322;2023-08-17T03:40:57;11.00;;;8.07;;
62903;SDS011;49000;50.698;13.322;2023-08-17T03:43:23;10.37;;;8.03;;
62903;SDS011;49000;50.698;13.322;2023-08-17T03:45:48;11.40;;;9.03;;
62903;SDS011;49000;50.698;13.322;2023-08-17T03:48:14;10.43;;;8.97;;
62903;SDS011;49000;50.698;13.322;2023-08-17T03:50:39;9.03;;;8.13;;
62903;SDS011;49000;50.698;13.322;2023-08-17T03:53:05;9.83;;;8.83;;
62903;SDS011;49000;50.698;13.322;2023-08-17T03:55:30;10.20;;;9.07;;
62903;SDS011;49000;50.698;13.322;2023-08-17T03:57:56;11.60;;;10.23;;
62903;SDS011;49000;50.698;13.322;2023-08-17T04:00:21;12.00;;;10.63;;
62903;SDS011;49000;50.698;13.322;2023-08-17T04:02:47;10.37;;;9.07;;
62903;SDS011;49000;50.698;13.322;2023-08-17T04:05:13;10.70;;;9.60;;
62903;SDS011;49000;50.698;13.322;2023-08-17T04:07:38;11.23;;;10.03;;
62903;SDS011;49000;50.698;13.322;2023-08-17T04:10:08;9.67;;;8.63;;
62903;SDS011;49000;50.698;13.322;2023-08-17T04:12:33;14.60;;;13.10;;
62903;SDS011;49000;50.698;13.322;2023-08-17T04:14:59;14.93;;;12.87;;
62903;SDS011;49000;50.698;13.322;2023-08-17T04:17:25;12.17;;;10.87;;
62903;SDS011;49000;50.698;13.322;2023-08-17T04:19:50;12.33;;;11.13;;
62903;SDS011;49000;50.698;13.322;2023-08-17T04:22:16;12.37;;;11.07;;
62903;SDS011;49000;50.698;13.322;2023-08-17T04:24:42;13.43;;;11.83;;
62903;SDS011;49000;50.698;13.322;2023-08-17T04:27:07;14.77;;;13.27;;
62903;SDS011;49000;50.698;13.322;2023-08-17T04:29:33;12.93;;;11.63;;
62903;SDS011;49000;50.698;13.322;2023-08-17T04:31:58;13.23;;;11.60;;
62903;SDS011;49000;50.698;13.322;2023-08-17T04:34:24;13.97;;;12.47;;
62903;SDS011;49000;50.698;13.322;2023-08-17T04:36:50;12.20;;;10.97;;
62903;SDS011;49000;50.698;13.322;2023-08-17T04:39:15;12.57;;;11.37;;
62903;SDS011;49000;50.698;13.322;2023-08-17T04:41:41;12.17;;;10.87;;
62903;SDS011;49000;50.698;13.322;2023-08-17T04:44:06;12.43;;;11.20;;
62903;SDS011;49000;50.698;13.322;2023-08-17T04:46:32;12.57;;;11.27;;
62903;SDS011;49000;50.698;13.322;2023-08-17T04:48:57;12.37;;;10.33;;
62903;SDS011;49000;50.698;13.322;2023-08-17T04:51:23;10.73;;;9.73;;
62903;SDS011;49000;50.698;13.322;2023-08-17T04:53:48;11.80;;;10.60;;
62903;SDS011;49000;50.698;13.322;2023-08-17T04:56:14;13.00;;;11.37;;
62903;SDS011;49000;50.698;13.322;2023-08-17T04:58:39;11.37;;;10.17;;
62903;SDS011;49000;50.698;13.322;2023-08-17T05:01:05;9.73;;;8.83;;
62903;SDS011;49000;50.698;13.322;2023-08-17T05:03:31;10.93;;;9.83;;
62903;SDS011;49000;50.698;13.322;2023-08-17T05:05:56;10.80;;;9.77;;
62903;SDS011;49000;50.698;13.322;2023-08-17T05:08:22;11.60;;;10.27;;
62903;SDS011;49000;50.698;13.322;2023-08-17T05:10:47;13.57;;;11.20;;
62903;SDS011;49000;50.698;13.322;2023-08-17T05:13:13;13.27;;;11.73;;
62903;SDS011;49000;50.698;13.322;2023-08-17T05:15:39;11.33;;;10.23;;
62903;SDS011;49000;50.698;13.322;2023-08-17T05:18:04;13.03;;;11.77;;
62903;SDS011;49000;50.698;13.322;2023-08-17T05:20:30;11.83;;;10.63;;
62903;SDS011;49000;50.698;13.322;2023-08-17T05:22:56;11.60;;;10.43;;
62903;SDS011;49000;50.698;13.322;2023-08-17T05:25:21;11.73;;;10.63;;
62903;SDS011;49000;50.698;13.322;2023-08-17T05:27:47;14.10;;;12.60;;
62903;SDS011;49000;50.698;13.322;2023-08-17T05:30:14;13.87;;;12.37;;
62903;SDS011;49000;50.698;13.322;2023-08-17T05:32:40;13.07;;;11.77;;
62903;SDS011;49000;50.698;13.322;2023-08-17T05:35:05;17.83;;;15.67;;
62903;SDS011;49000;50.698;13.322;2023-08-17T05:37:31;20.20;;;17.40;;
62903;SDS011;49000;50.698;13.322;2023-08-17T05:39:57;20.63;;;17.17;;
62903;SDS011;49000;50.698;13.322;2023-08-17T05:42:23;20.43;;;18.30;;
62903;SDS011;49000;50.698;13.322;2023-08-17T05:44:48;17.23;;;15.43;;
62903;SDS011;49000;50.698;13.322;2023-08-17T05:47:14;20.07;;;17.07;;
62903;SDS011;49000;50.698;13.322;2023-08-17T05:49:42;23.17;;;19.08;;
62903;SDS011;49000;50.698;13.322;2023-08-17T05:52:08;26.30;;;22.57;;
62903;SDS011;49000;50.698;13.322;2023-08-17T05:54:33;29.75;;;24.38;;
62903;SDS011;49000;50.698;13.322;2023-08-17T05:56:59;29.27;;;23.27;;
62903;SDS011;49000;50.698;13.322;2023-08-17T05:59:24;28.73;;;22.70;;
62903;SDS011;49000;50.698;13.322;2023-08-17T06:01:50;25.40;;;21.45;;
62903;SDS011;49000;50.698;13.322;2023-08-17T06:04:15;25.25;;;20.05;;
62903;SDS011;49000;50.698;13.322;2023-08-17T06:06:41;24.37;;;20.77;;
62903;SDS011;49000;50.698;13.322;2023-08-17T06:09:06;34.30;;;26.13;;
62903;SDS011;49000;50.698;13.322;2023-08-17T06:11:33;30.48;;;23.55;;
62903;SDS011;49000;50.698;13.322;2023-08-17T06:13:59;26.30;;;21.77;;
62903;SDS011;49000;50.698;13.322;2023-08-17T06:16:24;26.85;;;21.92;;
62903;SDS011;49000;50.698;13.322;2023-08-17T06:18:50;24.38;;;20.58;;
62903;SDS011;49000;50.698;13.322;2023-08-17T06:21:15;22.02;;;18.92;;
62903;SDS011;49000;50.698;13.322;2023-08-17T06:23:41;25.50;;;20.35;;
62903;SDS011;49000;50.698;13.322;2023-08-17T06:26:07;26.40;;;20.52;;
62903;SDS011;49000;50.698;13.322;2023-08-17T06:28:33;25.90;;;21.80;;
62903;SDS011;49000;50.698;13.322;2023-08-17T06:30:58;25.25;;;21.17;;
62903;SDS011;49000;50.698;13.322;2023-08-17T06:33:24;22.75;;;19.02;;
62903;SDS011;49000;50.698;13.322;2023-08-17T06:35:49;23.98;;;21.42;;
62903;SDS011;49000;50.698;13.322;2023-08-17T06:38:15;29.42;;;21.77;;
62903;SDS011;49000;50.698;13.322;2023-08-17T06:40:41;26.90;;;22.48;;
62903;SDS011;49000;50.698;13.322;2023-08-17T06:43:06;27.83;;;22.13;;
62903;SDS011;49000;50.698;13.322;2023-08-17T06:45:32;26.65;;;20.92;;
62903;SDS011;49000;50.698;13.322;2023-08-17T06:47:57;26.10;;;20.23;;
62903;SDS011;49000;50.698;13.322;2023-08-17T06:50:23;25.38;;;20.10;;
62903;SDS011;49000;50.698;13.322;2023-08-17T06:52:50;23.77;;;20.92;;
62903;SDS011;49000;50.698;13.322;2023-08-17T06:55:16;24.25;;;20.50;;
62903;SDS011;49000;50.698;13.322;2023-08-17T06:57:42;26.48;;;21.95;;
62903;SDS011;49000;50.698;13.322;2023-08-17T07:00:07;24.15;;;19.75;;
62903;SDS011;49000;50.698;13.322;2023-08-17T07:02:35;23.85;;;19.85;;
62903;SDS011;49000;50.698;13.322;2023-08-17T07:05:01;23.58;;;20.63;;
62903;SDS011;49000;50.698;13.322;2023-08-17T07:07:26;22.15;;;18.08;;
62903;SDS011;49000;50.698;13.322;2023-08-17T07:09:52;21.35;;;18.10;;
62903;SDS011;49000;50.698;13.322;2023-08-17T07:12:17;21.13;;;18.85;;
62903;SDS011;49000;50.698;13.322;2023-08-17T07:14:44;25.65;;;20.33;;
62903;SDS011;49000;50.698;13.322;2023-08-17T07:17:10;23.67;;;19.13;;
62903;SDS011;49000;50.698;13.322;2023-08-17T07:19:35;24.58;;;18.30;;
62903;SDS011;49000;50.698;13.322;2023-08-17T07:22:01;22.38;;;19.40;;
62903;SDS011;49000;50.698;13.322;2023-08-17T07:24:26;22.98;;;19.95;;
62903;SDS011;49000;50.698;13.322;2023-08-17T07:26:52;24.88;;;21.02;;
62903;SDS011;49000;50.698;13.322;2023-08-17T07:29:17;24.92;;;20.75;;
62903;SDS011;49000;50.698;13.322;2023-08-17T07:31:43;26.48;;;21.10;;
62903;SDS011;49000;50.698;13.322;2023-08-17T07:34:09;18.52;;;16.52;;
62903;SDS011;49000;50.698;13.322;2023-08-17T07:36:34;20.48;;;17.42;;
62903;SDS011;49000;50.698;13.322;2023-08-17T07:39:00;20.80;;;18.48;;
62903;SDS011;49000;50.698;13.322;2023-08-17T07:41:26;21.23;;;18.98;;
62903;SDS011;49000;50.698;13.322;2023-08-17T07:43:51;22.08;;;19.10;;
62903;SDS011;49000;50.698;13.322;2023-08-17T07:46:17;20.95;;;18.33;;
62903;SDS011;49000;50.698;13.322;2023-08-17T07:48:42;20.77;;;16.88;;
62903;SDS011;49000;50.698;13.322;2023-08-17T07:51:08;19.10;;;17.10;;
62903;SDS011;49000;50.698;13.322;2023-08-17T07:53:33;21.08;;;18.80;;
62903;SDS011;49000;50.698;13.322;2023-08-17T07:55:59;20.15;;;17.75;;
62903;SDS011;49000;50.698;13.322;2023-08-17T07:58:25;20.42;;;17.77;;
62903;SDS011;49000;50.698;13.322;2023-08-17T08:00:50;20.02;;;17.05;;
62903;SDS011;49000;50.698;13.322;2023-08-17T08:03:16;19.55;;;17.58;;
62903;SDS011;49000;50.698;13.322;2023-08-17T08:05:41;19.30;;;17.23;;
62903;SDS011;49000;50.698;13.322;2023-08-17T08:08:07;20.83;;;16.90;;
62903;SDS011;49000;50.698;13.322;2023-08-17T08:10:32;16.50;;;14.80;;
62903;SDS011;49000;50.698;13.322;2023-08-17T08:12:58;16.88;;;14.27;;
62903;SDS011;49000;50.698;13.322;2023-08-17T08:15:23;17.38;;;15.68;;
62903;SDS011;49000;50.698;13.322;2023-08-17T08:17:49;18.42;;;16.38;;
62903;SDS011;49000;50.698;13.322;2023-08-17T08:20:15;17.45;;;15.75;;
62903;SDS011;49000;50.698;13.322;2023-08-17T08:22:40;18.88;;;16.98;;
62903;SDS011;49000;50.698;13.322;2023-08-17T08:25:06;18.77;;;16.85;;
62903;SDS011;49000;50.698;13.322;2023-08-17T08:27:31;15.68;;;14.18;;
62903;SDS011;49000;50.698;13.322;2023-08-17T08:29:57;17.30;;;15.60;;
62903;SDS011;49000;50.698;13.322;2023-08-17T08:32:23;17.23;;;15.43;;
62903;SDS011;49000;50.698;13.322;2023-08-17T08:34:48;16.67;;;14.68;;
62903;SDS011;49000;50.698;13.322;2023-08-17T08:37:14;15.25;;;13.68;;
62903;SDS011;49000;50.698;13.322;2023-08-17T08:39:49;16.13;;;13.68;;
62903;SDS011;49000;50.698;13.322;2023-08-17T08:42:19;13.13;;;11.88;;
62903;SDS011;49000;50.698;13.322;2023-08-17T08:44:45;13.85;;;12.63;;
62903;SDS011;49000;50.698;13.322;2023-08-17T08:47:11;13.60;;;12.30;;
62903;SDS011;49000;50.698;13.322;2023-08-17T08:49:43;14.65;;;13.25;;
62903;SDS011;49000;50.698;13.322;2023-08-17T08:52:22;14.05;;;12.73;;
62903;SDS011;49000;50.698;13.322;2023-08-17T08:54:49;14.07;;;12.60;;
62903;SDS011;49000;50.698;13.322;2023-08-17T08:57:16;13.13;;;11.77;;
62903;SDS011;49000;50.698;13.322;2023-08-17T08:59:42;13.88;;;12.57;;
62903;SDS011;49000;50.698;13.322;2023-08-17T09:02:15;13.55;;;12.32;;
62903;SDS011;49000;50.698;13.322;2023-08-17T09:04:42;14.80;;;13.43;;
62903;SDS011;49000;50.698;13.322;2023-08-17T09:07:08;13.25;;;11.95;;
62903;SDS011;49000;50.698;13.322;2023-08-17T09:09:35;15.23;;;12.55;;
62903;SDS011;49000;50.698;13.322;2023-08-17T09:12:02;14.80;;;12.70;;
62903;SDS011;49000;50.698;13.322;2023-08-17T09:14:28;14.55;;;13.10;;
62903;SDS011;49000;50.698;13.322;2023-08-17T09:16:53;14.00;;;12.50;;
62903;SDS011;49000;50.698;13.322;2023-08-17T09:19:19;13.52;;;12.23;;
62903;SDS011;49000;50.698;13.322;2023-08-17T09:21:45;14.95;;;13.48;;
62903;SDS011;49000;50.698;13.322;2023-08-17T09:24:10;13.23;;;11.93;;
62903;SDS011;49000;50.698;13.322;2023-08-17T09:26:37;12.95;;;11.75;;
62903;SDS011;49000;50.698;13.322;2023-08-17T09:29:15;12.25;;;11.18;;
62903;SDS011;49000;50.698;13.322;2023-08-17T09:31:45;13.07;;;11.82;;
62903;SDS011;49000;50.698;13.322;2023-08-17T09:34:11;11.90;;;10.85;;
62903;SDS011;49000;50.698;13.322;2023-08-17T09:36:36;11.93;;;10.93;;
62903;SDS011;49000;50.698;13.322;2023-08-17T09:39:02;13.77;;;12.57;;
62903;SDS011;49000;50.698;13.322;2023-08-17T09:41:28;13.55;;;12.25;;
62903;SDS011;49000;50.698;13.322;2023-08-17T09:43:54;14.48;;;13.13;;
62903;SDS011;49000;50.698;13.322;2023-08-17T09:46:20;14.18;;;12.98;;
62903;SDS011;49000;50.698;13.322;2023-08-17T09:48:46;14.27;;;13.05;;
62903;SDS011;49000;50.698;13.322;2023-08-17T09:51:15;14.20;;;12.80;;
62903;SDS011;49000;50.698;13.322;2023-08-17T09:53:41;14.00;;;12.60;;
62903;SDS011;49000;50.698;13.322;2023-08-17T09:56:07;12.50;;;11.40;;
62903;SDS011;49000;50.698;13.322;2023-08-17T09:58:35;11.93;;;10.88;;
62903;SDS011;49000;50.698;13.322;2023-08-17T10:01:04;11.90;;;10.90;;
62903;SDS011;49000;50.698;13.322;2023-08-17T10:03:33;12.40;;;11.10;;
62903;SDS011;49000;50.698;13.322;2023-08-17T10:06:01;12.63;;;11.57;;
62903;SDS011;49000;50.698;13.322;2023-08-17T10:08:32;12.82;;;11.73;;
62903;SDS011;49000;50.698;13.322;2023-08-17T10:11:02;13.18;;;11.95;;
62903;SDS011;49000;50.698;13.322;2023-08-17T10:13:42;12.05;;;10.90;;
62903;SDS011;49000;50.698;13.322;2023-08-17T10:24:40;12.07;;;11.07;;
62903;SDS011;49000;50.698;13.322;2023-08-17T10:27:07;11.98;;;10.95;;
62903;SDS011;49000;50.698;13.322;2023-08-17T10:29:34;10.68;;;9.82;;
62903;SDS011;49000;50.698;13.322;2023-08-17T10:32:03;10.93;;;10.02;;
62903;SDS011;49000;50.698;13.322;2023-08-17T10:34:31;11.73;;;10.57;;
62903;SDS011;49000;50.698;13.322;2023-08-17T10:36:58;11.07;;;9.88;;
62903;SDS011;49000;50.698;13.322;2023-08-17T10:39:25;12.07;;;10.55;;
62903;SDS011;49000;50.698;13.322;2023-08-17T10:41:52;13.75;;;10.48;;
62903;SDS011;49000;50.698;13.322;2023-08-17T10:49:45;11.45;;;10.48;;
62903;SDS011;49000;50.698;13.322;2023-08-17T10:52:12;11.90;;;10.70;;
62903;SDS011;49000;50.698;13.322;2023-08-17T10:54:41;11.38;;;10.38;;
62903;SDS011;49000;50.698;13.322;2023-08-17T11:00:05;10.60;;;9.60;;
62903;SDS011;49000;50.698;13.322;2023-08-17T11:02:35;11.32;;;10.23;;
62903;SDS011;49000;50.698;13.322;2023-08-17T11:05:02;10.07;;;9.18;;
62903;SDS011;49000;50.698;13.322;2023-08-17T11:07:38;9.93;;;8.85;;
62903;SDS011;49000;50.698;13.322;2023-08-17T11:10:40;10.07;;;9.18;;
62903;SDS011;49000;50.698;13.322;2023-08-17T11:12:59;10.20;;;9.18;;
62903;SDS011;49000;50.698;13.322;2023-08-17T11:15:26;10.35;;;9.35;;
62903;SDS011;49000;50.698;13.322;2023-08-17T11:18:05;10.52;;;9.55;;
62903;SDS011;49000;50.698;13.322;2023-08-17T11:20:32;10.68;;;9.77;;
62903;SDS011;49000;50.698;13.322;2023-08-17T11:22:57;11.20;;;8.85;;
62903;SDS011;49000;50.698;13.322;2023-08-17T11:25:25;10.52;;;9.60;;
62903;SDS011;49000;50.698;13.322;2023-08-17T11:27:52;9.93;;;9.05;;
62903;SDS011;49000;50.698;13.322;2023-08-17T11:30:18;10.25;;;9.25;;
62903;SDS011;49000;50.698;13.322;2023-08-17T11:32:45;9.73;;;8.82;;
62903;SDS011;49000;50.698;13.322;2023-08-17T11:35:11;11.77;;;8.88;;
62903;SDS011;49000;50.698;13.322;2023-08-17T11:37:36;10.43;;;8.73;;
62903;SDS011;49000;50.698;13.322;2023-08-17T11:40:02;10.85;;;9.82;;
62903;SDS011;49000;50.698;13.322;2023-08-17T11:42:29;9.98;;;9.02;;
62903;SDS011;49000;50.698;13.322;2023-08-17T11:44:54;10.20;;;9.27;;
62903;SDS011;49000;50.698;13.322;2023-08-17T11:47:20;10.13;;;9.13;;
62903;SDS011;49000;50.698;13.322;2023-08-17T11:49:50;10.10;;;9.20;;
62903;SDS011;49000;50.698;13.322;2023-08-17T11:52:15;10.43;;;8.65;;
62903;SDS011;49000;50.698;13.322;2023-08-17T11:54:41;9.63;;;8.82;;
62903;SDS011;49000;50.698;13.322;2023-08-17T11:57:07;10.63;;;9.13;;
62903;SDS011;49000;50.698;13.322;2023-08-17T11:59:32;8.50;;;7.70;;
62903;SDS011;49000;50.698;13.322;2023-08-17T12:01:58;9.98;;;9.07;;
62903;SDS011;49000;50.698;13.322;2023-08-17T12:04:24;11.55;;;8.88;;
62903;SDS011;49000;50.698;13.322;2023-08-17T12:06:50;9.77;;;8.85;;
62903;SDS011;49000;50.698;13.322;2023-08-17T12:09:16;8.68;;;7.97;;
62903;SDS011;49000;50.698;13.322;2023-08-17T12:11:44;8.65;;;7.85;;
62903;SDS011;49000;50.698;13.322;2023-08-17T12:14:10;9.07;;;8.23;;
62903;SDS011;49000;50.698;13.322;2023-08-17T12:16:48;8.68;;;7.88;;
62903;SDS011;49000;50.698;13.322;2023-08-17T12:19:14;9.00;;;8.20;;
62903;SDS011;49000;50.698;13.322;2023-08-17T12:21:40;8.95;;;8.18;;
62903;SDS011;49000;50.698;13.322;2023-08-17T12:24:08;11.90;;;9.02;;
62903;SDS011;49000;50.698;13.322;2023-08-17T12:26:35;9.15;;;8.35;;
62903;SDS011;49000;50.698;13.322;2023-08-17T12:29:00;8.43;;;7.50;;
62903;SDS011;49000;50.698;13.322;2023-08-17T12:31:30;8.27;;;7.57;;
62903;SDS011;49000;50.698;13.322;2023-08-17T12:33:56;9.48;;;8.68;;
62903;SDS011;49000;50.698;13.322;2023-08-17T12:36:22;8.73;;;7.82;;
62903;SDS011;49000;50.698;13.322;2023-08-17T12:38:47;8.23;;;7.50;;
62903;SDS011;49000;50.698;13.322;2023-08-17T12:41:13;12.18;;;7.97;;
62903;SDS011;49000;50.698;13.322;2023-08-17T12:43:38;9.80;;;8.27;;
62903;SDS011;49000;50.698;13.322;2023-08-17T12:46:04;9.43;;;8.38;;
62903;SDS011;49000;50.698;13.322;2023-08-17T12:48:29;8.80;;;8.00;;
62903;SDS011;49000;50.698;13.322;2023-08-17T12:50:55;8.63;;;7.80;;
62903;SDS011;49000;50.698;13.322;2023-08-17T12:53:21;8.02;;;7.32;;
62903;SDS011;49000;50.698;13.322;2023-08-17T12:55:47;9.07;;;7.10;;
62903;SDS011;49000;50.698;13.322;2023-08-17T12:58:12;8.57;;;7.55;;
62903;SDS011;49000;50.698;13.322;2023-08-17T13:00:38;8.35;;;7.55;;
62903;SDS011;49000;50.698;13.322;2023-08-17T13:03:03;8.80;;;7.65;;
62903;SDS011;49000;50.698;13.322;2023-08-17T13:05:29;8.25;;;7.57;;
62903;SDS011;49000;50.698;13.322;2023-08-17T13:07:55;8.82;;;8.13;;
62903;SDS011;49000;50.698;13.322;2023-08-17T13:10:20;9.32;;;8.18;;
62903;SDS011;49000;50.698;13.322;2023-08-17T13:12:46;8.60;;;7.80;;
62903;SDS011;49000;50.698;13.322;2023-08-17T13:15:12;8.25;;;7.45;;
62903;SDS011;49000;50.698;13.322;2023-08-17T13:17:38;8.95;;;7.63;;
62903;SDS011;49000;50.698;13.322;2023-08-17T13:20:04;8.13;;;7.43;;
62903;SDS011;49000;50.698;13.322;2023-08-17T13:22:31;8.80;;;8.00;;
62903;SDS011;49000;50.698;13.322;2023-08-17T13:24:57;8.65;;;7.85;;
62903;SDS011;49000;50.698;13.322;2023-08-17T13:27:22;8.20;;;7.50;;
62903;SDS011;49000;50.698;13.322;2023-08-17T13:29:48;7.88;;;7.28;;
62903;SDS011;49000;50.698;13.322;2023-08-17T13:32:13;7.57;;;6.97;;
62903;SDS011;49000;50.698;13.322;2023-08-17T13:34:39;7.60;;;6.80;;
62903;SDS011;49000;50.698;13.322;2023-08-17T13:37:05;7.80;;;7.20;;
62903;SDS011;49000;50.698;13.322;2023-08-17T13:39:30;7.80;;;7.00;;
62903;SDS011;49000;50.698;13.322;2023-08-17T13:41:57;7.28;;;6.68;;
62903;SDS011;49000;50.698;13.322;2023-08-17T13:44:23;7.95;;;7.00;;
62903;SDS011;49000;50.698;13.322;2023-08-17T13:46:48;7.25;;;6.65;;
62903;SDS011;49000;50.698;13.322;2023-08-17T13:49:14;8.90;;;6.57;;
62903;SDS011;49000;50.698;13.322;2023-08-17T13:51:39;6.82;;;6.22;;
62903;SDS011;49000;50.698;13.322;2023-08-17T13:54:05;6.97;;;6.28;;
62903;SDS011;49000;50.698;13.322;2023-08-17T13:56:30;6.90;;;6.30;;
62903;SDS011;49000;50.698;13.322;2023-08-17T13:58:56;7.68;;;6.85;;
62903;SDS011;49000;50.698;13.322;2023-08-17T14:01:21;6.80;;;6.20;;
62903;SDS011;49000;50.698;13.322;2023-08-17T14:03:47;6.88;;;6.28;;
62903;SDS011;49000;50.698;13.322;2023-08-17T14:06:12;7.00;;;6.30;;
62903;SDS011;49000;50.698;13.322;2023-08-17T14:08:38;7.28;;;6.65;;
62903;SDS011;49000;50.698;13.322;2023-08-17T14:11:03;7.03;;;6.32;;
62903;SDS011;49000;50.698;13.322;2023-08-17T14:13:31;6.93;;;6.43;;
62903;SDS011;49000;50.698;13.322;2023-08-17T14:15:57;7.15;;;6.45;;
62903;SDS011;49000;50.698;13.322;2023-08-17T14:18:24;6.63;;;6.13;;
62903;SDS011;49000;50.698;13.322;2023-08-17T14:20:50;6.35;;;5.85;;
62903;SDS011;49000;50.698;13.322;2023-08-17T14:23:15;8.70;;;6.72;;
62903;SDS011;49000;50.698;13.322;2023-08-17T14:25:41;7.15;;;6.55;;
62903;SDS011;49000;50.698;13.322;2023-08-17T14:28:06;7.90;;;7.10;;
62903;SDS011;49000;50.698;13.322;2023-08-17T14:30:32;8.68;;;7.82;;
62903;SDS011;49000;50.698;13.322;2023-08-17T14:32:58;7.70;;;6.97;;
62903;SDS011;49000;50.698;13.322;2023-08-17T14:35:23;8.40;;;7.63;;